sensor_id;sensor_type;location;lat;lon;timestamp;P1;durP1;ratioP1;P2;durP2;ratioP2
2257;SDS011;1136;51.574;7.706;2022-09-12T00:00:34;14.80;;;13.30;;
2257;SDS011;1136;51.574;7.706;2022-09-12T00:03:01;14.03;;;12.57;;
2257;SDS011;1136;51.574;7.706;2022-09-12T00:05:28;13.70;;;12.40;;
2257;SDS011;1136;51.574;7.706;2022-09-12T00:07:56;13.80;;;12.17;;
2257;SDS011;1136;51.574;7.706;2022-09-12T00:10:22;13.73;;;12.20;;
2257;SDS011;1136;51.574;7.706;2022-09-12T00:12:49;12.80;;;11.50;;
2257;SDS011;1136;51.574;7.706;2022-09-12T00:15:15;14.07;;;12.77;;
2257;SDS011;1136;51.574;7.706;2022-09-12T00:17:42;15.50;;;13.00;;
2257;SDS011;1136;51.574;7.706;2022-09-12T00:20:09;13.23;;;11.83;;
2257;SDS011;1136;51.574;7.706;2022-09-12T00:22:36;12.93;;;11.67;;
2257;SDS011;1136;51.574;7.706;2022-09-12T00:25:03;14.07;;;12.70;;
2257;SDS011;1136;51.574;7.706;2022-09-12T00:27:30;13.27;;;11.90;;
2257;SDS011;1136;51.574;7.706;2022-09-12T00:29:57;13.30;;;12.00;;
2257;SDS011;1136;51.574;7.706;2022-09-12T00:32:24;14.13;;;12.67;;
2257;SDS011;1136;51.574;7.706;2022-09-12T00:34:50;14.23;;;12.73;;
2257;SDS011;1136;51.574;7.706;2022-09-12T00:37:16;14.13;;;12.63;;
2257;SDS011;1136;51.574;7.706;2022-09-12T00:39:43;15.23;;;13.17;;
2257;SDS011;1136;51.574;7.706;2022-09-12T00:42:10;15.70;;;13.33;;
2257;SDS011;1136;51.574;7.706;2022-09-12T00:52:23;14.70;;;11.30;;
2257;SDS011;1136;51.574;7.706;2022-09-12T00:57:51;15.63;;;12.70;;
2257;SDS011;1136;51.574;7.706;2022-09-12T01:00:20;20.90;;;13.20;;
2257;SDS011;1136;51.574;7.706;2022-09-12T01:02:53;12.63;;;11.43;;
2257;SDS011;1136;51.574;7.706;2022-09-12T01:05:21;14.53;;;13.03;;
2257;SDS011;1136;51.574;7.706;2022-09-12T01:07:49;13.40;;;12.00;;
2257;SDS011;1136;51.574;7.706;2022-09-12T01:10:16;12.97;;;11.60;;
2257;SDS011;1136;51.574;7.706;2022-09-12T01:12:43;12.87;;;11.57;;
2257;SDS011;1136;51.574;7.706;2022-09-12T01:15:10;13.83;;;11.67;;
2257;SDS011;1136;51.574;7.706;2022-09-12T01:20:52;13.70;;;12.33;;
2257;SDS011;1136;51.574;7.706;2022-09-12T01:49:30;13.10;;;11.80;;
2257;SDS011;1136;51.574;7.706;2022-09-12T01:52:02;14.00;;;12.57;;
2257;SDS011;1136;51.574;7.706;2022-09-12T01:54:36;13.17;;;11.97;;
2257;SDS011;1136;51.574;7.706;2022-09-12T01:57:07;12.00;;;10.80;;
2257;SDS011;1136;51.574;7.706;2022-09-12T01:59:39;13.70;;;12.30;;
2257;SDS011;1136;51.574;7.706;2022-09-12T02:02:27;12.47;;;11.27;;
2257;SDS011;1136;51.574;7.706;2022-09-12T02:07:39;13.77;;;12.37;;
2257;SDS011;1136;51.574;7.706;2022-09-12T02:10:11;11.47;;;10.27;;
2257;SDS011;1136;51.574;7.706;2022-09-12T02:12:48;13.93;;;12.60;;
2257;SDS011;1136;51.574;7.706;2022-09-12T02:15:18;12.53;;;11.20;;
2257;SDS011;1136;51.574;7.706;2022-09-12T02:17:47;13.87;;;11.33;;
2257;SDS011;1136;51.574;7.706;2022-09-12T02:20:17;12.70;;;11.50;;
2257;SDS011;1136;51.574;7.706;2022-09-12T02:23:08;11.77;;;10.67;;
2257;SDS011;1136;51.574;7.706;2022-09-12T02:25:38;11.60;;;10.50;;
2257;SDS011;1136;51.574;7.706;2022-09-12T02:28:13;11.93;;;10.40;;
2257;SDS011;1136;51.574;7.706;2022-09-12T02:30:44;12.20;;;11.10;;
2257;SDS011;1136;51.574;7.706;2022-09-12T02:39:17;10.90;;;10.00;;
2257;SDS011;1136;51.574;7.706;2022-09-12T02:41:46;11.90;;;10.80;;
2257;SDS011;1136;51.574;7.706;2022-09-12T02:44:15;12.07;;;10.83;;
2257;SDS011;1136;51.574;7.706;2022-09-12T02:46:43;10.33;;;9.40;;
2257;SDS011;1136;51.574;7.706;2022-09-12T02:49:12;11.00;;;9.97;;
2257;SDS011;1136;51.574;7.706;2022-09-12T02:51:39;10.63;;;9.60;;
2257;SDS011;1136;51.574;7.706;2022-09-12T02:54:05;11.97;;;10.90;;
2257;SDS011;1136;51.574;7.706;2022-09-12T02:56:32;11.07;;;9.90;;
2257;SDS011;1136;51.574;7.706;2022-09-12T02:59:04;10.20;;;9.20;;
2257;SDS011;1136;51.574;7.706;2022-09-12T03:29:20;10.93;;;9.80;;
2257;SDS011;1136;51.574;7.706;2022-09-12T03:31:50;9.17;;;8.37;;
2257;SDS011;1136;51.574;7.706;2022-09-12T03:34:19;10.83;;;9.70;;
2257;SDS011;1136;51.574;7.706;2022-09-12T03:36:46;11.30;;;10.20;;
2257;SDS011;1136;51.574;7.706;2022-09-12T03:39:14;12.23;;;10.93;;
2257;SDS011;1136;51.574;7.706;2022-09-12T03:41:41;11.40;;;9.97;;
2257;SDS011;1136;51.574;7.706;2022-09-12T03:44:08;11.10;;;8.93;;
2257;SDS011;1136;51.574;7.706;2022-09-12T03:46:34;12.03;;;11.00;;
2257;SDS011;1136;51.574;7.706;2022-09-12T03:49:01;11.37;;;10.23;;
2257;SDS011;1136;51.574;7.706;2022-09-12T03:51:27;10.77;;;9.77;;
2257;SDS011;1136;51.574;7.706;2022-09-12T03:53:54;11.60;;;10.43;;
2257;SDS011;1136;51.574;7.706;2022-09-12T03:56:21;10.90;;;9.47;;
2257;SDS011;1136;51.574;7.706;2022-09-12T03:58:47;11.37;;;10.27;;
2257;SDS011;1136;51.574;7.706;2022-09-12T04:01:15;11.47;;;10.33;;
2257;SDS011;1136;51.574;7.706;2022-09-12T04:03:43;10.10;;;9.10;;
2257;SDS011;1136;51.574;7.706;2022-09-12T04:06:11;10.13;;;9.17;;
2257;SDS011;1136;51.574;7.706;2022-09-12T04:08:40;10.00;;;9.20;;
2257;SDS011;1136;51.574;7.706;2022-09-12T04:11:08;9.33;;;8.53;;
2257;SDS011;1136;51.574;7.706;2022-09-12T04:13:36;10.70;;;9.80;;
2257;SDS011;1136;51.574;7.706;2022-09-12T04:16:04;11.00;;;10.00;;
2257;SDS011;1136;51.574;7.706;2022-09-12T04:18:33;15.53;;;13.97;;
2257;SDS011;1136;51.574;7.706;2022-09-12T04:21:13;9.80;;;8.90;;
2257;SDS011;1136;51.574;7.706;2022-09-12T04:23:41;11.03;;;9.80;;
2257;SDS011;1136;51.574;7.706;2022-09-12T04:26:08;9.53;;;8.73;;
2257;SDS011;1136;51.574;7.706;2022-09-12T04:28:36;12.07;;;10.10;;
2257;SDS011;1136;51.574;7.706;2022-09-12T04:31:04;10.00;;;9.00;;
2257;SDS011;1136;51.574;7.706;2022-09-12T04:33:33;14.70;;;9.83;;
2257;SDS011;1136;51.574;7.706;2022-09-12T04:36:05;12.83;;;9.50;;
2257;SDS011;1136;51.574;7.706;2022-09-12T04:38:32;11.10;;;8.97;;
2257;SDS011;1136;51.574;7.706;2022-09-12T04:41:06;9.67;;;8.70;;
2257;SDS011;1136;51.574;7.706;2022-09-12T04:43:35;10.13;;;9.23;;
2257;SDS011;1136;51.574;7.706;2022-09-12T04:46:06;10.20;;;9.30;;
2257;SDS011;1136;51.574;7.706;2022-09-12T04:48:33;9.90;;;9.00;;
2257;SDS011;1136;51.574;7.706;2022-09-12T04:51:10;11.90;;;8.93;;
2257;SDS011;1136;51.574;7.706;2022-09-12T04:53:46;10.00;;;9.00;;
2257;SDS011;1136;51.574;7.706;2022-09-12T04:56:14;9.37;;;8.60;;
2257;SDS011;1136;51.574;7.706;2022-09-12T04:58:41;9.97;;;8.97;;
2257;SDS011;1136;51.574;7.706;2022-09-12T05:01:08;10.03;;;9.00;;
2257;SDS011;1136;51.574;7.706;2022-09-12T05:03:36;8.77;;;7.77;;
2257;SDS011;1136;51.574;7.706;2022-09-12T05:06:08;9.17;;;8.33;;
2257;SDS011;1136;51.574;7.706;2022-09-12T05:08:37;9.20;;;8.50;;
2257;SDS011;1136;51.574;7.706;2022-09-12T05:11:04;11.00;;;10.00;;
2257;SDS011;1136;51.574;7.706;2022-09-12T05:13:32;13.43;;;10.73;;
2257;SDS011;1136;51.574;7.706;2022-09-12T05:16:00;9.40;;;8.57;;
2257;SDS011;1136;51.574;7.706;2022-09-12T05:18:27;9.37;;;8.60;;
2257;SDS011;1136;51.574;7.706;2022-09-12T05:20:57;9.03;;;8.23;;
2257;SDS011;1136;51.574;7.706;2022-09-12T05:23:25;11.63;;;9.60;;
2257;SDS011;1136;51.574;7.706;2022-09-12T05:25:53;9.40;;;8.63;;
2257;SDS011;1136;51.574;7.706;2022-09-12T05:28:21;9.73;;;8.80;;
2257;SDS011;1136;51.574;7.706;2022-09-12T05:33:47;8.63;;;7.93;;
2257;SDS011;1136;51.574;7.706;2022-09-12T05:36:15;9.00;;;8.33;;
2257;SDS011;1136;51.574;7.706;2022-09-12T05:38:47;9.97;;;8.87;;
2257;SDS011;1136;51.574;7.706;2022-09-12T05:41:21;8.80;;;8.00;;
2257;SDS011;1136;51.574;7.706;2022-09-12T05:43:52;9.20;;;8.40;;
2257;SDS011;1136;51.574;7.706;2022-09-12T05:46:21;9.87;;;9.03;;
2257;SDS011;1136;51.574;7.706;2022-09-12T05:48:49;8.80;;;8.10;;
2257;SDS011;1136;51.574;7.706;2022-09-12T05:51:22;9.80;;;8.90;;
2257;SDS011;1136;51.574;7.706;2022-09-12T05:53:55;9.03;;;8.13;;
2257;SDS011;1136;51.574;7.706;2022-09-12T05:56:23;12.60;;;9.27;;
2257;SDS011;1136;51.574;7.706;2022-09-12T05:58:58;8.63;;;7.93;;
2257;SDS011;1136;51.574;7.706;2022-09-12T06:01:27;11.67;;;8.97;;
2257;SDS011;1136;51.574;7.706;2022-09-12T06:03:55;10.03;;;8.90;;
2257;SDS011;1136;51.574;7.706;2022-09-12T06:06:26;12.17;;;8.80;;
2257;SDS011;1136;51.574;7.706;2022-09-12T06:08:55;8.33;;;7.73;;
2257;SDS011;1136;51.574;7.706;2022-09-12T06:11:25;9.60;;;8.73;;
2257;SDS011;1136;51.574;7.706;2022-09-12T06:13:52;10.00;;;9.10;;
2257;SDS011;1136;51.574;7.706;2022-09-12T06:16:20;13.83;;;12.60;;
2257;SDS011;1136;51.574;7.706;2022-09-12T06:18:48;18.40;;;14.00;;
2257;SDS011;1136;51.574;7.706;2022-09-12T06:21:17;9.80;;;9.00;;
2257;SDS011;1136;51.574;7.706;2022-09-12T06:23:43;9.80;;;9.07;;
2257;SDS011;1136;51.574;7.706;2022-09-12T06:26:14;10.63;;;9.73;;
2257;SDS011;1136;51.574;7.706;2022-09-12T06:28:42;10.33;;;9.27;;
2257;SDS011;1136;51.574;7.706;2022-09-12T06:31:14;10.73;;;9.73;;
2257;SDS011;1136;51.574;7.706;2022-09-12T06:33:49;9.23;;;8.33;;
2257;SDS011;1136;51.574;7.706;2022-09-12T06:38:52;9.47;;;8.67;;
2257;SDS011;1136;51.574;7.706;2022-09-12T06:41:22;9.90;;;8.90;;
2257;SDS011;1136;51.574;7.706;2022-09-12T06:43:49;10.83;;;9.73;;
2257;SDS011;1136;51.574;7.706;2022-09-12T06:46:16;11.60;;;10.50;;
2257;SDS011;1136;51.574;7.706;2022-09-12T06:48:42;10.10;;;8.93;;
2257;SDS011;1136;51.574;7.706;2022-09-12T06:51:10;13.17;;;9.07;;
2257;SDS011;1136;51.574;7.706;2022-09-12T06:53:40;11.57;;;9.47;;
2257;SDS011;1136;51.574;7.706;2022-09-12T06:56:11;11.23;;;10.03;;
2257;SDS011;1136;51.574;7.706;2022-09-12T06:58:44;11.67;;;9.47;;
2257;SDS011;1136;51.574;7.706;2022-09-12T07:01:17;15.07;;;9.10;;
2257;SDS011;1136;51.574;7.706;2022-09-12T07:03:51;10.27;;;9.27;;
2257;SDS011;1136;51.574;7.706;2022-09-12T07:06:21;10.03;;;9.03;;
2257;SDS011;1136;51.574;7.706;2022-09-12T07:09:00;10.03;;;9.13;;
2257;SDS011;1136;51.574;7.706;2022-09-12T07:11:31;12.53;;;9.17;;
2257;SDS011;1136;51.574;7.706;2022-09-12T07:13:59;10.43;;;9.60;;
2257;SDS011;1136;51.574;7.706;2022-09-12T07:16:28;10.93;;;9.73;;
2257;SDS011;1136;51.574;7.706;2022-09-12T07:18:59;10.07;;;8.57;;
2257;SDS011;1136;51.574;7.706;2022-09-12T07:21:27;10.17;;;8.10;;
2257;SDS011;1136;51.574;7.706;2022-09-12T07:23:54;9.60;;;8.20;;
2257;SDS011;1136;51.574;7.706;2022-09-12T07:26:24;12.13;;;7.73;;
2257;SDS011;1136;51.574;7.706;2022-09-12T07:28:52;10.30;;;9.30;;
2257;SDS011;1136;51.574;7.706;2022-09-12T07:31:23;10.63;;;9.73;;
2257;SDS011;1136;51.574;7.706;2022-09-12T07:33:50;9.10;;;8.40;;
2257;SDS011;1136;51.574;7.706;2022-09-12T07:36:20;10.23;;;8.47;;
2257;SDS011;1136;51.574;7.706;2022-09-12T07:38:52;11.90;;;9.27;;
2257;SDS011;1136;51.574;7.706;2022-09-12T07:41:30;9.43;;;8.60;;
2257;SDS011;1136;51.574;7.706;2022-09-12T07:43:59;8.73;;;7.83;;
2257;SDS011;1136;51.574;7.706;2022-09-12T07:46:26;9.37;;;8.40;;
2257;SDS011;1136;51.574;7.706;2022-09-12T07:48:55;9.70;;;8.70;;
2257;SDS011;1136;51.574;7.706;2022-09-12T07:51:23;7.30;;;6.70;;
2257;SDS011;1136;51.574;7.706;2022-09-12T07:53:51;9.30;;;8.17;;
2257;SDS011;1136;51.574;7.706;2022-09-12T07:56:18;8.83;;;8.03;;
2257;SDS011;1136;51.574;7.706;2022-09-12T07:58:46;9.43;;;8.47;;
2257;SDS011;1136;51.574;7.706;2022-09-12T08:01:14;8.27;;;7.57;;
2257;SDS011;1136;51.574;7.706;2022-09-12T08:03:43;8.30;;;7.60;;
2257;SDS011;1136;51.574;7.706;2022-09-12T08:06:12;7.97;;;7.27;;
2257;SDS011;1136;51.574;7.706;2022-09-12T08:08:40;9.37;;;8.50;;
2257;SDS011;1136;51.574;7.706;2022-09-12T08:11:11;8.30;;;7.70;;
2257;SDS011;1136;51.574;7.706;2022-09-12T08:13:39;8.83;;;8.13;;
2257;SDS011;1136;51.574;7.706;2022-09-12T08:16:07;8.33;;;7.00;;
2257;SDS011;1136;51.574;7.706;2022-09-12T08:18:38;15.53;;;10.93;;
2257;SDS011;1136;51.574;7.706;2022-09-12T08:21:05;10.97;;;9.87;;
2257;SDS011;1136;51.574;7.706;2022-09-12T08:23:33;11.00;;;9.90;;
2257;SDS011;1136;51.574;7.706;2022-09-12T08:26:00;11.37;;;10.23;;
2257;SDS011;1136;51.574;7.706;2022-09-12T08:28:32;11.40;;;10.50;;
2257;SDS011;1136;51.574;7.706;2022-09-12T08:31:21;10.80;;;9.90;;
2257;SDS011;1136;51.574;7.706;2022-09-12T08:33:47;10.50;;;8.37;;
2257;SDS011;1136;51.574;7.706;2022-09-12T08:38:42;11.33;;;10.33;;
2257;SDS011;1136;51.574;7.706;2022-09-12T08:41:18;11.27;;;9.77;;
2257;SDS011;1136;51.574;7.706;2022-09-12T08:55:05;11.83;;;10.93;;
2257;SDS011;1136;51.574;7.706;2022-09-12T08:57:46;11.43;;;10.03;;
2257;SDS011;1136;51.574;7.706;2022-09-12T09:00:13;12.93;;;11.37;;
2257;SDS011;1136;51.574;7.706;2022-09-12T09:02:50;11.73;;;10.53;;
2257;SDS011;1136;51.574;7.706;2022-09-12T09:05:44;12.00;;;10.80;;
2257;SDS011;1136;51.574;7.706;2022-09-12T09:17:40;10.83;;;9.83;;
2257;SDS011;1136;51.574;7.706;2022-09-12T09:20:30;9.70;;;8.80;;
2257;SDS011;1136;51.574;7.706;2022-09-12T09:23:12;9.87;;;8.87;;
2257;SDS011;1136;51.574;7.706;2022-09-12T09:25:57;9.83;;;8.83;;
2257;SDS011;1136;51.574;7.706;2022-09-12T09:31:25;9.40;;;8.50;;
2257;SDS011;1136;51.574;7.706;2022-09-12T09:33:54;8.63;;;7.90;;
2257;SDS011;1136;51.574;7.706;2022-09-12T09:36:21;10.13;;;9.23;;
2257;SDS011;1136;51.574;7.706;2022-09-12T09:38:58;9.03;;;8.23;;
2257;SDS011;1136;51.574;7.706;2022-09-12T09:41:38;10.07;;;9.27;;
2257;SDS011;1136;51.574;7.706;2022-09-12T09:44:06;7.90;;;7.20;;
2257;SDS011;1136;51.574;7.706;2022-09-12T09:46:38;8.83;;;7.90;;
2257;SDS011;1136;51.574;7.706;2022-09-12T09:49:04;9.03;;;8.23;;
2257;SDS011;1136;51.574;7.706;2022-09-12T09:51:37;8.43;;;7.73;;
2257;SDS011;1136;51.574;7.706;2022-09-12T09:56:47;10.57;;;9.77;;
2257;SDS011;1136;51.574;7.706;2022-09-12T10:04:19;8.00;;;7.10;;
2257;SDS011;1136;51.574;7.706;2022-09-12T10:06:49;6.40;;;5.93;;
2257;SDS011;1136;51.574;7.706;2022-09-12T10:09:18;6.80;;;6.20;;
2257;SDS011;1136;51.574;7.706;2022-09-12T10:11:46;5.70;;;5.33;;
2257;SDS011;1136;51.574;7.706;2022-09-12T10:14:26;6.17;;;4.93;;
2257;SDS011;1136;51.574;7.706;2022-09-12T10:16:56;5.30;;;4.90;;
2257;SDS011;1136;51.574;7.706;2022-09-12T10:19:32;6.47;;;6.10;;
2257;SDS011;1136;51.574;7.706;2022-09-12T10:22:03;5.90;;;5.60;;
2257;SDS011;1136;51.574;7.706;2022-09-12T10:24:34;5.07;;;4.77;;
2257;SDS011;1136;51.574;7.706;2022-09-12T10:30:00;5.17;;;4.77;;
2257;SDS011;1136;51.574;7.706;2022-09-12T10:34:57;5.23;;;4.93;;
2257;SDS011;1136;51.574;7.706;2022-09-12T10:37:32;6.17;;;5.73;;
2257;SDS011;1136;51.574;7.706;2022-09-12T10:40:01;5.63;;;5.13;;
2257;SDS011;1136;51.574;7.706;2022-09-12T10:47:51;5.57;;;5.17;;
2257;SDS011;1136;51.574;7.706;2022-09-12T10:50:20;5.37;;;5.10;;
2257;SDS011;1136;51.574;7.706;2022-09-12T10:53:13;6.03;;;4.30;;
2257;SDS011;1136;51.574;7.706;2022-09-12T11:27:01;3.50;;;3.30;;
2257;SDS011;1136;51.574;7.706;2022-09-12T11:32:09;3.83;;;3.53;;
2257;SDS011;1136;51.574;7.706;2022-09-12T11:40:26;3.93;;;3.63;;
2257;SDS011;1136;51.574;7.706;2022-09-12T11:43:00;3.50;;;3.30;;
2257;SDS011;1136;51.574;7.706;2022-09-12T11:45:42;3.93;;;3.70;;
2257;SDS011;1136;51.574;7.706;2022-09-12T11:48:11;4.27;;;4.03;;
2257;SDS011;1136;51.574;7.706;2022-09-12T11:50:46;3.63;;;3.43;;
2257;SDS011;1136;51.574;7.706;2022-09-12T11:53:17;5.10;;;4.53;;
2257;SDS011;1136;51.574;7.706;2022-09-12T11:55:51;3.57;;;3.37;;
2257;SDS011;1136;51.574;7.706;2022-09-12T11:58:21;3.70;;;3.53;;
2257;SDS011;1136;51.574;7.706;2022-09-12T12:00:50;4.13;;;3.93;;
2257;SDS011;1136;51.574;7.706;2022-09-12T12:03:24;3.73;;;3.53;;
2257;SDS011;1136;51.574;7.706;2022-09-12T12:06:12;3.23;;;3.03;;
2257;SDS011;1136;51.574;7.706;2022-09-12T12:08:44;3.13;;;2.97;;
2257;SDS011;1136;51.574;7.706;2022-09-12T12:11:13;3.73;;;3.53;;
2257;SDS011;1136;51.574;7.706;2022-09-12T12:13:45;3.50;;;3.30;;
2257;SDS011;1136;51.574;7.706;2022-09-12T12:19:01;4.00;;;3.80;;
2257;SDS011;1136;51.574;7.706;2022-09-12T12:21:39;4.17;;;3.63;;
2257;SDS011;1136;51.574;7.706;2022-09-12T12:32:29;3.70;;;3.40;;
2257;SDS011;1136;51.574;7.706;2022-09-12T12:34:41;3.97;;;3.67;;
2257;SDS011;1136;51.574;7.706;2022-09-12T12:47:33;5.10;;;4.80;;
2257;SDS011;1136;51.574;7.706;2022-09-12T12:58:17;3.80;;;3.50;;
2257;SDS011;1136;51.574;7.706;2022-09-12T13:01:02;3.97;;;3.73;;
2257;SDS011;1136;51.574;7.706;2022-09-12T13:03:32;3.87;;;3.67;;
2257;SDS011;1136;51.574;7.706;2022-09-12T13:06:00;3.80;;;3.43;;
2257;SDS011;1136;51.574;7.706;2022-09-12T13:08:29;3.33;;;3.10;;
2257;SDS011;1136;51.574;7.706;2022-09-12T13:11:06;3.13;;;2.93;;
2257;SDS011;1136;51.574;7.706;2022-09-12T13:13:37;3.87;;;3.57;;
2257;SDS011;1136;51.574;7.706;2022-09-12T13:16:08;3.13;;;3.00;;
2257;SDS011;1136;51.574;7.706;2022-09-12T13:18:43;4.10;;;3.80;;
2257;SDS011;1136;51.574;7.706;2022-09-12T13:21:15;3.50;;;3.30;;
2257;SDS011;1136;51.574;7.706;2022-09-12T13:23:43;3.83;;;3.63;;
2257;SDS011;1136;51.574;7.706;2022-09-12T13:26:20;3.80;;;3.57;;
2257;SDS011;1136;51.574;7.706;2022-09-12T13:28:48;4.13;;;3.53;;
2257;SDS011;1136;51.574;7.706;2022-09-12T13:36:26;4.07;;;3.77;;
2257;SDS011;1136;51.574;7.706;2022-09-12T13:39:13;3.23;;;3.00;;
2257;SDS011;1136;51.574;7.706;2022-09-12T13:44:59;3.93;;;3.73;;
2257;SDS011;1136;51.574;7.706;2022-09-12T13:50:17;3.20;;;3.00;;
2257;SDS011;1136;51.574;7.706;2022-09-12T13:52:47;4.10;;;3.70;;
2257;SDS011;1136;51.574;7.706;2022-09-12T13:55:33;3.80;;;3.60;;
2257;SDS011;1136;51.574;7.706;2022-09-12T13:58:25;4.43;;;4.13;;
2257;SDS011;1136;51.574;7.706;2022-09-12T14:03:33;3.60;;;3.43;;
2257;SDS011;1136;51.574;7.706;2022-09-12T14:06:24;4.90;;;3.50;;
2257;SDS011;1136;51.574;7.706;2022-09-12T14:08:55;3.80;;;3.60;;
2257;SDS011;1136;51.574;7.706;2022-09-12T14:11:23;3.70;;;3.50;;
2257;SDS011;1136;51.574;7.706;2022-09-12T14:13:52;5.77;;;3.40;;
2257;SDS011;1136;51.574;7.706;2022-09-12T14:16:20;3.60;;;3.30;;
2257;SDS011;1136;51.574;7.706;2022-09-12T14:18:49;3.70;;;3.40;;
2257;SDS011;1136;51.574;7.706;2022-09-12T14:24:00;4.10;;;3.90;;
2257;SDS011;1136;51.574;7.706;2022-09-12T14:26:28;4.57;;;3.70;;
2257;SDS011;1136;51.574;7.706;2022-09-12T14:28:57;3.70;;;3.50;;
2257;SDS011;1136;51.574;7.706;2022-09-12T14:31:29;4.67;;;4.27;;
2257;SDS011;1136;51.574;7.706;2022-09-12T14:42:04;3.73;;;3.43;;
2257;SDS011;1136;51.574;7.706;2022-09-12T14:44:32;3.77;;;3.43;;
2257;SDS011;1136;51.574;7.706;2022-09-12T14:50:02;3.50;;;3.20;;
2257;SDS011;1136;51.574;7.706;2022-09-12T14:52:33;5.50;;;4.80;;
2257;SDS011;1136;51.574;7.706;2022-09-12T14:57:46;3.80;;;3.47;;
2257;SDS011;1136;51.574;7.706;2022-09-12T15:00:16;3.87;;;3.67;;
2257;SDS011;1136;51.574;7.706;2022-09-12T15:02:46;3.97;;;3.77;;
2257;SDS011;1136;51.574;7.706;2022-09-12T15:05:18;4.90;;;4.60;;
2257;SDS011;1136;51.574;7.706;2022-09-12T15:10:29;4.30;;;4.03;;
2257;SDS011;1136;51.574;7.706;2022-09-12T15:15:42;4.40;;;4.10;;
2257;SDS011;1136;51.574;7.706;2022-09-12T15:18:20;5.83;;;4.40;;
2257;SDS011;1136;51.574;7.706;2022-09-12T15:20:48;5.00;;;4.57;;
2257;SDS011;1136;51.574;7.706;2022-09-12T15:23:17;5.20;;;4.90;;
2257;SDS011;1136;51.574;7.706;2022-09-12T15:26:06;4.57;;;4.17;;
2257;SDS011;1136;51.574;7.706;2022-09-12T15:28:33;5.70;;;5.20;;
2257;SDS011;1136;51.574;7.706;2022-09-12T15:31:06;4.03;;;3.73;;
2257;SDS011;1136;51.574;7.706;2022-09-12T15:33:41;4.67;;;3.77;;
2257;SDS011;1136;51.574;7.706;2022-09-12T15:36:10;6.43;;;6.03;;
2257;SDS011;1136;51.574;7.706;2022-09-12T15:38:39;4.30;;;4.00;;
2257;SDS011;1136;51.574;7.706;2022-09-12T15:41:13;4.67;;;4.27;;
2257;SDS011;1136;51.574;7.706;2022-09-12T15:43:43;3.67;;;3.47;;
2257;SDS011;1136;51.574;7.706;2022-09-12T15:46:11;4.67;;;4.27;;
2257;SDS011;1136;51.574;7.706;2022-09-12T15:48:39;4.30;;;4.00;;
2257;SDS011;1136;51.574;7.706;2022-09-12T15:51:16;3.93;;;3.70;;
2257;SDS011;1136;51.574;7.706;2022-09-12T15:53:45;3.90;;;3.70;;
2257;SDS011;1136;51.574;7.706;2022-09-12T15:56:13;4.33;;;4.07;;
2257;SDS011;1136;51.574;7.706;2022-09-12T15:58:41;4.10;;;3.80;;
2257;SDS011;1136;51.574;7.706;2022-09-12T16:01:23;3.90;;;3.60;;
2257;SDS011;1136;51.574;7.706;2022-09-12T16:03:50;4.80;;;4.40;;
2257;SDS011;1136;51.574;7.706;2022-09-12T16:06:16;24.40;;;8.03;;
2257;SDS011;1136;51.574;7.706;2022-09-12T16:08:43;4.00;;;3.80;;
2257;SDS011;1136;51.574;7.706;2022-09-12T16:11:11;4.17;;;3.90;;
2257;SDS011;1136;51.574;7.706;2022-09-12T16:13:41;3.90;;;3.60;;
2257;SDS011;1136;51.574;7.706;2022-09-12T16:16:08;4.27;;;3.60;;
2257;SDS011;1136;51.574;7.706;2022-09-12T16:18:34;4.50;;;4.20;;
2257;SDS011;1136;51.574;7.706;2022-09-12T16:21:01;3.90;;;3.70;;
2257;SDS011;1136;51.574;7.706;2022-09-12T16:23:27;3.90;;;3.60;;
2257;SDS011;1136;51.574;7.706;2022-09-12T16:25:55;3.80;;;3.50;;
2257;SDS011;1136;51.574;7.706;2022-09-12T16:28:25;3.27;;;3.07;;
2257;SDS011;1136;51.574;7.706;2022-09-12T16:30:56;4.23;;;3.40;;
2257;SDS011;1136;51.574;7.706;2022-09-12T16:33:23;4.20;;;3.80;;
2257;SDS011;1136;51.574;7.706;2022-09-12T16:35:51;4.00;;;3.60;;
2257;SDS011;1136;51.574;7.706;2022-09-12T16:38:20;3.80;;;3.43;;
2257;SDS011;1136;51.574;7.706;2022-09-12T16:40:47;3.80;;;3.57;;
2257;SDS011;1136;51.574;7.706;2022-09-12T16:43:14;3.97;;;3.50;;
2257;SDS011;1136;51.574;7.706;2022-09-12T16:45:42;3.70;;;3.40;;
2257;SDS011;1136;51.574;7.706;2022-09-12T16:48:09;3.40;;;3.20;;
2257;SDS011;1136;51.574;7.706;2022-09-12T16:50:36;3.83;;;3.63;;
2257;SDS011;1136;51.574;7.706;2022-09-12T16:53:03;2.70;;;2.60;;
2257;SDS011;1136;51.574;7.706;2022-09-12T16:55:29;3.30;;;3.10;;
2257;SDS011;1136;51.574;7.706;2022-09-12T16:57:58;3.93;;;2.90;;
2257;SDS011;1136;51.574;7.706;2022-09-12T17:00:24;3.93;;;3.50;;
2257;SDS011;1136;51.574;7.706;2022-09-12T17:02:51;3.23;;;3.03;;
2257;SDS011;1136;51.574;7.706;2022-09-12T17:05:17;4.20;;;3.80;;
2257;SDS011;1136;51.574;7.706;2022-09-12T17:07:44;4.77;;;3.80;;
2257;SDS011;1136;51.574;7.706;2022-09-12T17:10:10;3.83;;;3.60;;
2257;SDS011;1136;51.574;7.706;2022-09-12T17:12:37;4.37;;;3.50;;
2257;SDS011;1136;51.574;7.706;2022-09-12T17:15:04;3.50;;;3.30;;
2257;SDS011;1136;51.574;7.706;2022-09-12T17:17:31;3.63;;;3.33;;
2257;SDS011;1136;51.574;7.706;2022-09-12T17:19:57;3.60;;;3.20;;
2257;SDS011;1136;51.574;7.706;2022-09-12T17:22:24;4.50;;;2.73;;
2257;SDS011;1136;51.574;7.706;2022-09-12T17:24:50;3.90;;;3.60;;
2257;SDS011;1136;51.574;7.706;2022-09-12T17:27:17;5.40;;;3.10;;
2257;SDS011;1136;51.574;7.706;2022-09-12T17:29:44;3.07;;;2.87;;
2257;SDS011;1136;51.574;7.706;2022-09-12T17:32:10;3.50;;;3.30;;
2257;SDS011;1136;51.574;7.706;2022-09-12T17:34:42;3.43;;;3.23;;
2257;SDS011;1136;51.574;7.706;2022-09-12T17:37:09;3.20;;;3.00;;
2257;SDS011;1136;51.574;7.706;2022-09-12T17:39:35;3.50;;;3.30;;
2257;SDS011;1136;51.574;7.706;2022-09-12T17:42:02;3.60;;;3.40;;
2257;SDS011;1136;51.574;7.706;2022-09-12T17:44:28;11.93;;;10.93;;
2257;SDS011;1136;51.574;7.706;2022-09-12T17:46:55;5.13;;;4.73;;
2257;SDS011;1136;51.574;7.706;2022-09-12T17:49:21;4.77;;;4.33;;
2257;SDS011;1136;51.574;7.706;2022-09-12T17:51:48;4.80;;;4.40;;
2257;SDS011;1136;51.574;7.706;2022-09-12T17:54:17;6.53;;;5.93;;
2257;SDS011;1136;51.574;7.706;2022-09-12T17:56:46;3.63;;;3.43;;
2257;SDS011;1136;51.574;7.706;2022-09-12T17:59:16;3.57;;;3.37;;
2257;SDS011;1136;51.574;7.706;2022-09-12T18:01:44;3.57;;;3.37;;
2257;SDS011;1136;51.574;7.706;2022-09-12T18:04:30;4.20;;;3.90;;
2257;SDS011;1136;51.574;7.706;2022-09-12T18:06:57;4.13;;;3.83;;
2257;SDS011;1136;51.574;7.706;2022-09-12T18:09:25;3.47;;;3.27;;
2257;SDS011;1136;51.574;7.706;2022-09-12T18:11:53;3.60;;;3.40;;
2257;SDS011;1136;51.574;7.706;2022-09-12T18:14:20;4.20;;;3.80;;
2257;SDS011;1136;51.574;7.706;2022-09-12T18:16:47;6.40;;;3.93;;
2257;SDS011;1136;51.574;7.706;2022-09-12T18:19:13;3.80;;;3.60;;
2257;SDS011;1136;51.574;7.706;2022-09-12T18:21:40;6.87;;;4.30;;
2257;SDS011;1136;51.574;7.706;2022-09-12T18:24:07;4.27;;;4.07;;
2257;SDS011;1136;51.574;7.706;2022-09-12T18:26:34;4.30;;;3.90;;
2257;SDS011;1136;51.574;7.706;2022-09-12T18:29:01;4.47;;;4.07;;
2257;SDS011;1136;51.574;7.706;2022-09-12T18:31:28;5.00;;;4.60;;
2257;SDS011;1136;51.574;7.706;2022-09-12T18:33:56;6.00;;;4.53;;
2257;SDS011;1136;51.574;7.706;2022-09-12T18:36:24;4.73;;;4.43;;
2257;SDS011;1136;51.574;7.706;2022-09-12T18:38:52;4.97;;;4.67;;
2257;SDS011;1136;51.574;7.706;2022-09-12T18:41:19;5.23;;;4.93;;
2257;SDS011;1136;51.574;7.706;2022-09-12T18:43:47;5.90;;;5.03;;
2257;SDS011;1136;51.574;7.706;2022-09-12T18:46:15;5.20;;;4.70;;
2257;SDS011;1136;51.574;7.706;2022-09-12T18:48:44;5.03;;;4.57;;
2257;SDS011;1136;51.574;7.706;2022-09-12T18:51:17;5.53;;;4.47;;
2257;SDS011;1136;51.574;7.706;2022-09-12T18:53:49;11.23;;;10.30;;
2257;SDS011;1136;51.574;7.706;2022-09-12T18:56:18;10.33;;;8.40;;
2257;SDS011;1136;51.574;7.706;2022-09-12T18:58:48;5.73;;;5.33;;
2257;SDS011;1136;51.574;7.706;2022-09-12T19:01:19;5.27;;;4.97;;
2257;SDS011;1136;51.574;7.706;2022-09-12T19:03:50;5.27;;;4.93;;
2257;SDS011;1136;51.574;7.706;2022-09-12T19:06:18;6.37;;;5.87;;
2257;SDS011;1136;51.574;7.706;2022-09-12T19:08:47;7.20;;;6.40;;
2257;SDS011;1136;51.574;7.706;2022-09-12T19:11:15;7.70;;;7.00;;
2257;SDS011;1136;51.574;7.706;2022-09-12T19:13:43;6.60;;;6.10;;
2257;SDS011;1136;51.574;7.706;2022-09-12T19:16:11;5.50;;;5.00;;